Terminal Aerodrome Forecast
Issued by NWS

Home | Current Version | Previous Version | Text Only | Print | Product List | Glossary On
Versions: 1 2 3 4 5 6 7 8 9 10 11 12 13 14 15 16 17 18
000
FTUS44 KBMX 200500
TAFTOI
TAF
KTOI 200526Z 2006/2106 05003KT 5SM BR SKC
     FM201000 06003KT 4SM BR BKN015
     FM201600 05009KT P6SM SCT035=

USA.gov is the U.S. government's official web portal to all federal, state and local government web resources and services.